Time;durP1;ratioP1;P1;durP2;ratioP2;P2;SDS_P1;SDS_P2;PMS_P1;PMS_P2;Temp;Humidity;BMP_temperature;BMP_pressure;BME280_temperature;BME280_humidity;BME280_pressure;Samples;Min_cycle;Max_cycle;Signal;HPM_P1;HPM_P2
2020/12/01 00:00:16;;;;;;;18.58;10.90;;;;;;;2.72;66.44;101090.72;5069742;28;20031;-49
2020/12/01 00:02:42;;;;;;;18.92;10.52;;;;;;;2.72;66.31;101084.56;5088762;28;20042;-51
2020/12/01 00:05:08;;;;;;;20.17;10.52;;;;;;;2.77;66.22;101084.44;5085779;28;20028;-50
2020/12/01 00:07:33;;;;;;;17.33;9.82;;;;;;;2.42;66.17;101018.41;5090450;28;20036;-53
2020/12/01 00:09:59;;;;;;;19.27;10.73;;;;;;;2.77;66.70;101076.50;5090714;28;20092;-53
2020/12/01 00:12:24;;;;;;;18.90;10.60;;;;;;;2.78;66.31;101078.22;5075066;28;20033;-51
2020/12/01 00:14:50;;;;;;;18.83;12.15;;;;;;;2.82;66.40;101075.47;5071544;28;20170;-53
2020/12/01 00:17:15;;;;;;;19.92;11.00;;;;;;;2.89;66.30;101081.44;5070248;28;20127;-49
2020/12/01 00:19:41;;;;;;;22.55;11.27;;;;;;;2.73;66.38;101060.72;5071482;28;20039;-53
2020/12/01 00:22:06;;;;;;;22.30;12.25;;;;;;;2.87;66.01;101084.13;5078379;28;20445;-55
2020/12/01 00:24:32;;;;;;;22.02;11.70;;;;;;;2.81;66.33;101081.66;5089532;28;20471;-54
2020/12/01 00:27:09;;;;;;;20.50;12.10;;;;;;;2.76;66.13;101050.97;5070302;28;20044;-47
2020/12/01 00:29:34;;;;;;;21.67;11.45;;;;;;;2.89;65.84;101075.28;5070274;28;20035;-49
2020/12/01 00:31:59;;;;;;;24.60;12.40;;;;;;;2.79;66.08;101072.03;5070605;28;20036;-53
2020/12/01 00:34:25;;;;;;;19.27;11.73;;;;;;;2.79;66.13;101077.31;5070296;28;20055;-52
2020/12/01 00:36:50;;;;;;;19.00;11.93;;;;;;;2.71;66.64;101066.94;5069563;28;20032;-51
2020/12/01 00:39:16;;;;;;;19.83;11.73;;;;;;;2.80;66.68;101079.94;5070052;28;20063;-54
2020/12/01 00:41:42;;;;;;;21.75;12.07;;;;;;;2.89;66.02;101065.56;5080634;28;20431;-50
2020/12/01 00:44:07;;;;;;;22.15;12.50;;;;;;;2.86;65.82;101071.81;5073434;28;20040;-49
2020/12/01 00:46:33;;;;;;;21.90;13.77;;;;;;;2.75;66.45;101070.38;5071175;28;20402;-51
2020/12/01 00:48:58;;;;;;;23.00;13.68;;;;;;;2.85;65.96;101074.50;5069996;28;20396;-56
2020/12/01 00:51:24;;;;;;;21.52;12.95;;;;;;;2.84;66.57;101080.69;5069739;28;20051;-56
2020/12/01 00:53:50;;;;;;;23.02;13.35;;;;;;;2.77;66.46;101065.91;5071804;28;20040;-56
2020/12/01 00:56:21;;;;;;;22.13;13.32;;;;;;;2.67;66.44;101066.19;5070096;28;20369;-52
2020/12/01 00:58:47;;;;;;;24.00;13.57;;;;;;;2.79;66.25;101085.25;5069911;28;20044;-52
2020/12/01 01:01:13;;;;;;;22.98;13.68;;;;;;;2.73;66.29;101073.94;5069991;28;20032;-54
2020/12/01 01:03:38;;;;;;;23.08;13.63;;;;;;;2.37;66.63;101005.31;5071776;28;20036;-54
2020/12/01 01:06:03;;;;;;;24.88;14.85;;;;;;;2.81;66.69;101075.50;5073039;28;20062;-55
2020/12/01 01:08:29;;;;;;;22.80;13.82;;;;;;;2.78;66.65;101079.13;5069699;28;20404;-54
2020/12/01 01:10:55;;;;;;;22.75;13.52;;;;;;;2.77;66.13;101076.50;5069866;28;20492;-50
2020/12/01 01:13:21;;;;;;;23.75;14.38;;;;;;;2.75;66.38;101043.94;5070028;28;20048;-54
2020/12/01 01:15:47;;;;;;;25.48;15.02;;;;;;;2.84;66.41;101059.53;5071864;28;20036;-52
2020/12/01 01:18:12;;;;;;;24.45;14.52;;;;;;;2.81;66.17;101080.78;5070155;28;20511;-54
2020/12/01 01:20:37;;;;;;;25.50;14.80;;;;;;;2.50;66.58;101008.47;5069782;28;20071;-54
2020/12/01 01:23:03;;;;;;;24.33;15.23;;;;;;;2.89;66.51;101075.28;5069729;28;20036;-53
2020/12/01 01:25:28;;;;;;;23.42;14.77;;;;;;;2.85;66.25;101080.66;5077842;28;20407;-51
2020/12/01 01:27:54;;;;;;;24.40;14.63;;;;;;;2.92;66.26;101060.22;5089670;28;20063;-52
2020/12/01 01:30:23;;;;;;;24.58;14.75;;;;;;;2.81;66.27;101062.28;5089575;28;20074;-49
2020/12/01 01:32:48;;;;;;;21.92;14.68;;;;;;;2.96;65.92;101087.41;5089521;28;20042;-51
2020/12/01 01:35:15;;;;;;;20.60;13.52;;;;;;;2.81;65.88;101063.16;5087353;28;20036;-48
2020/12/01 01:37:40;;;;;;;24.08;15.45;;;;;;;2.95;66.50;101076.00;5069814;28;20036;-50
2020/12/01 01:40:06;;;;;;;19.63;12.10;;;;;;;2.99;65.98;101082.91;5068651;28;20048;-52
2020/12/01 01:42:32;;;;;;;21.30;12.98;;;;;;;2.95;66.02;101083.94;5069971;28;20044;-54
2020/12/01 01:44:57;;;;;;;22.17;14.07;;;;;;;2.84;66.01;101073.66;5072364;28;20045;-53
2020/12/01 01:47:27;;;;;;;20.67;14.05;;;;;;;2.79;66.42;101067.63;5088412;28;20055;-55
2020/12/01 01:50:14;;;;;;;19.00;12.68;;;;;;;2.88;66.11;101074.41;5092348;28;20039;-52
2020/12/01 01:52:43;;;;;;;18.73;12.50;;;;;;;2.92;66.46;101078.72;5092716;28;20044;-52
2020/12/01 01:55:25;;;;;;;20.77;13.00;;;;;;;2.84;66.06;101064.81;5092854;28;20039;-49
2020/12/01 01:57:54;;;;;;;19.10;12.63;;;;;;;2.87;66.48;101085.91;5091257;28;20115;-51
2020/12/01 02:00:51;;;;;;;19.58;12.65;;;;;;;2.79;66.50;101056.16;5090536;28;20492;-51
2020/12/01 02:03:36;;;;;;;21.65;13.25;;;;;;;2.93;66.52;101076.94;5073493;28;20051;-52
2020/12/01 02:06:24;;;;;;;19.38;13.00;;;;;;;2.50;66.09;101012.91;5089165;28;20036;-55
2020/12/01 02:09:02;;;;;;;20.55;13.55;;;;;;;2.81;66.43;101070.22;5090899;28;20036;-55
2020/12/01 02:11:31;;;;;;;18.88;13.23;;;;;;;2.89;65.91;101096.44;5092948;28;20049;-52
2020/12/01 02:14:15;;;;;;;18.13;12.68;;;;;;;2.92;66.80;101099.88;5092819;28;20042;-52
2020/12/01 02:16:45;;;;;;;19.10;13.05;;;;;;;2.91;65.96;101084.94;5073938;28;20101;-53
2020/12/01 02:19:16;;;;;;;17.77;12.50;;;;;;;2.95;66.02;101101.56;5073614;28;20044;-54
2020/12/01 02:21:42;;;;;;;19.60;12.55;;;;;;;2.92;66.55;101115.75;5072784;28;20049;-52
2020/12/01 02:24:15;;;;;;;19.42;12.98;;;;;;;2.92;65.81;101102.53;5072369;28;20119;-53
2020/12/01 02:26:41;;;;;;;18.08;12.40;;;;;;;2.90;65.64;101107.00;5084996;28;20827;-49
2020/12/01 02:29:12;;;;;;;21.63;13.00;;;;;;;2.78;65.99;101087.06;5090601;28;20122;-53
2020/12/01 02:31:38;;;;;;;19.52;12.93;;;;;;;2.82;66.13;101090.47;5092461;28;20028;-54
2020/12/01 02:34:09;;;;;;;18.58;12.48;;;;;;;2.85;66.61;101095.66;5092248;28;20404;-55
2020/12/01 02:36:35;;;;;;;18.00;12.18;;;;;;;2.86;66.31;101092.09;5083137;28;20105;-55
2020/12/01 02:39:01;;;;;;;19.80;12.82;;;;;;;2.89;65.86;101097.31;5072124;28;20127;-51
2020/12/01 02:41:26;;;;;;;18.35;11.88;;;;;;;2.86;66.27;101097.38;5073123;28;20508;-53
2020/12/01 02:43:52;;;;;;;18.20;11.80;;;;;;;2.84;65.72;101089.53;5072005;28;20040;-52
2020/12/01 02:46:18;;;;;;;17.27;11.85;;;;;;;2.81;65.89;101088.72;5074471;28;20615;-53
2020/12/01 02:48:44;;;;;;;18.45;12.20;;;;;;;2.80;66.01;101094.94;5092429;28;20028;-55
2020/12/01 02:51:09;;;;;;;19.00;12.27;;;;;;;2.87;66.66;101107.06;5092172;28;20065;-53
2020/12/01 02:53:34;;;;;;;18.95;13.05;;;;;;;2.82;66.18;101101.03;5090481;28;20035;-52
2020/12/01 02:56:00;;;;;;;18.58;13.23;;;;;;;2.87;65.95;101099.13;5091689;28;20035;-55
2020/12/01 02:58:25;;;;;;;18.52;12.70;;;;;;;2.83;65.95;101105.41;5076473;28;20123;-51
2020/12/01 03:00:51;;;;;;;20.35;12.65;;;;;;;2.82;66.54;101101.03;5071849;28;20039;-52
2020/12/01 03:03:16;;;;;;;18.63;12.77;;;;;;;2.83;66.17;101105.41;5071906;28;20395;-53
2020/12/01 03:05:42;;;;;;;18.52;12.23;;;;;;;2.83;66.15;101093.06;5069760;28;20039;-51
2020/12/01 03:08:07;;;;;;;18.83;13.27;;;;;;;2.88;65.94;101111.44;5081798;28;20036;-51
2020/12/01 03:10:33;;;;;;;15.52;8.88;;;;;;;2.99;65.60;101098.78;5090710;28;20044;-56
2020/12/01 03:12:58;;;;;;;21.67;13.05;;;;;;;2.96;65.26;101109.47;5091576;28;20553;-55
2020/12/01 03:15:24;;;;;;;21.08;13.73;;;;;;;2.83;65.97;101103.66;5091848;28;20392;-57
2020/12/01 03:17:49;;;;;;;22.85;15.45;;;;;;;2.78;65.58;101099.41;5089286;28;20054;-56
2020/12/01 03:20:15;;;;;;;23.88;15.05;;;;;;;2.67;66.13;101097.94;5087375;28;20412;-55
2020/12/01 03:22:40;;;;;;;22.75;14.60;;;;;;;2.58;66.35;101082.28;5090794;28;20514;-50
2020/12/01 03:25:06;;;;;;;28.10;16.83;;;;;;;2.63;66.43;101084.81;5091093;28;20034;-51
2020/12/01 03:27:31;;;;;;;23.33;15.57;;;;;;;2.73;66.17;101113.63;5091365;28;20067;-53
2020/12/01 03:29:57;;;;;;;26.05;16.27;;;;;;;2.64;66.75;101092.69;5075265;28;20067;-50
2020/12/01 03:32:23;;;;;;;25.77;15.98;;;;;;;2.74;66.05;101117.13;5072315;28;20040;-55
2020/12/01 03:34:50;;;;;;;24.65;16.45;;;;;;;2.72;65.84;101111.00;5071476;28;20043;-53
2020/12/01 03:37:16;;;;;;;23.30;15.68;;;;;;;2.69;66.06;101111.09;5089754;28;20423;-55
2020/12/01 03:39:41;;;;;;;26.08;16.10;;;;;;;2.55;66.39;101116.75;5081845;28;20048;-49
2020/12/01 03:42:07;;;;;;;25.38;15.75;;;;;;;2.57;66.00;101114.94;5070432;28;20416;-54
2020/12/01 03:44:33;;;;;;;26.83;15.93;;;;;;;2.61;66.12;101124.50;5072028;28;20127;-53
2020/12/01 03:46:58;;;;;;;23.92;15.75;;;;;;;2.63;65.70;101127.97;5069062;28;20052;-53
2020/12/01 03:49:24;;;;;;;27.42;17.20;;;;;;;2.27;65.82;101078.69;5072890;28;20108;-54
2020/12/01 03:51:50;;;;;;;24.70;16.50;;;;;;;2.54;65.72;101126.47;5091456;28;20051;-50
2020/12/01 03:54:16;;;;;;;26.08;16.45;;;;;;;2.51;65.68;101133.59;5090899;28;20416;-54
2020/12/01 03:56:42;;;;;;;26.08;16.00;;;;;;;2.48;65.69;101137.19;5089329;28;20036;-54
2020/12/01 03:59:07;;;;;;;24.67;16.05;;;;;;;2.55;65.93;101144.06;5091031;28;20096;-55
2020/12/01 04:01:33;;;;;;;32.25;17.35;;;;;;;2.44;66.00;101144.34;5075304;28;20044;-49
2020/12/01 04:03:58;;;;;;;25.42;15.63;;;;;;;2.35;65.83;101133.97;5070805;28;20043;-54
2020/12/01 04:06:24;;;;;;;24.50;16.05;;;;;;;2.43;66.27;101147.00;5070382;28;20032;-51
2020/12/01 04:08:49;;;;;;;25.63;15.57;;;;;;;2.52;66.24;101148.56;5071804;28;20028;-55
2020/12/01 04:11:16;;;;;;;22.15;14.85;;;;;;;2.35;66.19;101115.47;5079286;28;20567;-55
2020/12/01 04:13:42;;;;;;;22.95;15.60;;;;;;;2.55;65.74;101137.91;5090704;28;20047;-52
2020/12/01 04:16:07;;;;;;;24.05;16.38;;;;;;;2.50;65.15;101123.94;5090349;28;20036;-53
2020/12/01 04:18:32;;;;;;;21.85;14.45;;;;;;;2.53;65.30;101131.78;5090783;28;20024;-50
2020/12/01 04:20:58;;;;;;;22.45;13.90;;;;;;;2.56;65.46;101150.22;5086605;28;20035;-51
2020/12/01 04:23:23;;;;;;;21.10;14.02;;;;;;;2.58;65.25;101140.47;5070100;28;20036;-50
2020/12/01 04:25:49;;;;;;;22.02;14.25;;;;;;;2.58;66.00;101146.63;5070189;28;20203;-51
2020/12/01 04:28:14;;;;;;;20.90;14.07;;;;;;;2.65;65.05;101142.06;5070586;28;20511;-52
2020/12/01 04:30:40;;;;;;;19.83;13.05;;;;;;;2.58;65.15;101156.31;5070368;28;20411;-48
2020/12/01 04:33:05;;;;;;;20.45;13.55;;;;;;;2.60;65.50;101153.66;5072529;28;20028;-50
2020/12/01 04:35:31;;;;;;;22.67;13.80;;;;;;;2.57;64.99;101154.59;5070569;28;20502;-50
2020/12/01 04:38:00;;;;;;;19.85;11.70;;;;;;;2.56;65.14;101159.03;5070501;28;20033;-53
2020/12/01 04:40:30;;;;;;;22.63;13.90;;;;;;;2.09;65.32;101085.31;5070327;28;20099;-53
2020/12/01 04:43:01;;;;;;;22.13;12.50;;;;;;;2.53;64.86;101163.50;5079899;28;20076;-51
2020/12/01 04:45:27;;;;;;;19.92;13.27;;;;;;;2.18;64.96;101088.66;5088855;28;20031;-55
2020/12/01 04:48:00;;;;;;;17.10;11.63;;;;;;;2.56;64.85;101147.56;5090173;28;20408;-56
2020/12/01 04:50:43;;;;;;;27.02;13.25;;;;;;;2.65;64.75;101170.25;5090380;28;20047;-49
2020/12/01 04:53:32;;;;;;;21.92;13.10;;;;;;;2.62;64.38;101175.63;5082963;28;20031;-55
2020/12/01 04:56:17;;;;;;;18.08;11.68;;;;;;;2.60;64.10;101157.16;5070329;28;20449;-53
2020/12/01 04:58:55;;;;;;;19.02;11.82;;;;;;;2.53;64.51;101158.22;5070889;28;20081;-52
2020/12/01 05:01:23;;;;;;;19.25;11.65;;;;;;;2.53;64.50;101163.50;5069823;28;20089;-53
2020/12/01 05:03:51;;;;;;;18.08;11.23;;;;;;;2.47;64.58;101148.66;5078029;28;20036;-53
2020/12/01 05:09:19;;;;;;;19.80;12.10;;;;;;;2.32;63.66;101147.28;5089703;28;20080;-54
2020/12/01 05:11:54;;;;;;;24.58;12.18;;;;;;;2.39;64.75;101156.78;5088503;28;20062;-53
2020/12/01 05:14:24;;;;;;;20.13;12.57;;;;;;;2.37;64.78;101171.81;5081402;28;20058;-52
2020/12/01 05:16:56;;;;;;;18.98;11.85;;;;;;;2.39;64.44;101161.22;5069524;28;20040;-51
2020/12/01 05:19:39;;;;;;;19.02;11.85;;;;;;;2.42;63.90;101154.09;5073925;28;20024;-53
2020/12/01 05:22:05;;;;;;;20.17;11.82;;;;;;;2.37;64.16;101178.91;5073278;28;20040;-53
2020/12/01 05:24:46;;;;;;;21.58;11.45;;;;;;;2.37;63.83;101179.75;5079726;28;20028;-57
2020/12/01 05:27:26;;;;;;;20.17;11.95;;;;;;;2.31;64.28;101177.25;5093884;28;20130;-57
2020/12/01 05:30:18;;;;;;;21.08;12.20;;;;;;;2.47;63.58;101179.53;5094143;28;20511;-56
2020/12/01 05:32:54;;;;;;;18.90;11.50;;;;;;;2.22;64.10;101137.84;5085141;28;20116;-53
2020/12/01 05:35:29;;;;;;;19.65;12.25;;;;;;;2.31;64.38;101171.97;5090273;28;20069;-56
2020/12/01 05:38:25;;;;;;;20.10;12.45;;;;;;;2.29;64.12;101166.75;5073192;28;20393;-53
2020/12/01 05:40:55;;;;;;;20.83;11.93;;;;;;;2.35;64.02;101176.28;5068857;28;20056;-55
2020/12/01 05:43:36;;;;;;;19.33;12.75;;;;;;;2.37;63.63;101169.16;5073291;28;20933;-50
2020/12/01 05:46:24;;;;;;;21.80;12.57;;;;;;;2.42;63.70;101177.88;5074317;28;20073;-55
2020/12/01 05:48:57;;;;;;;18.63;12.30;;;;;;;2.44;63.55;101185.75;5074028;28;20453;-57
2020/12/01 05:51:33;;;;;;;18.73;12.23;;;;;;;2.38;63.79;101176.19;5072786;28;20040;-57
2020/12/01 05:53:59;;;;;;;19.92;12.35;;;;;;;2.41;63.67;101185.84;5074048;28;20040;-53
2020/12/01 05:56:26;;;;;;;22.13;13.82;;;;;;;2.44;63.96;101191.03;5073124;28;20138;-52
2020/12/01 05:59:06;;;;;;;22.23;13.65;;;;;;;2.47;63.46;101198.03;5073136;28;20040;-51
2020/12/01 06:01:54;;;;;;;18.67;11.73;;;;;;;2.42;63.38;101191.09;5074266;28;20101;-53
2020/12/01 06:04:25;;;;;;;22.17;12.15;;;;;;;2.42;63.34;101208.72;5078184;28;20046;-54
2020/12/01 06:07:14;;;;;;;19.42;12.50;;;;;;;2.38;63.49;101199.97;5093087;28;20573;-52
2020/12/01 06:09:52;;;;;;;20.73;13.27;;;;;;;2.40;63.37;101202.59;5093195;28;20031;-54
2020/12/01 06:12:46;;;;;;;19.05;12.10;;;;;;;2.44;63.10;101220.13;5093125;28;20114;-49
2020/12/01 06:15:16;;;;;;;20.48;11.40;;;;;;;2.43;63.08;101221.91;5085641;28;20040;-54
2020/12/01 06:18:19;;;;;;;20.52;12.68;;;;;;;2.46;63.20;101223.59;5093125;28;20592;-52
2020/12/01 06:20:56;;;;;;;22.70;13.32;;;;;;;2.49;62.76;101218.22;5092791;28;20438;-53
2020/12/01 06:23:58;;;;;;;19.05;12.95;;;;;;;2.49;63.15;101222.66;5092908;28;20403;-52
2020/12/01 06:27:14;;;;;;;20.20;12.38;;;;;;;2.53;62.75;101237.53;5089239;28;20051;-56
2020/12/01 06:29:55;;;;;;;19.83;12.63;;;;;;;2.44;62.64;101238.63;5047110;28;20157;-54
2020/12/01 06:32:57;;;;;;;19.08;11.90;;;;;;;2.38;63.08;101242.28;5092458;28;20151;-53
2020/12/01 06:35:30;;;;;;;20.55;12.73;;;;;;;2.31;63.33;101245.13;5091044;28;20066;-53
2020/12/01 06:37:58;;;;;;;21.42;12.68;;;;;;;2.23;63.25;101235.56;5092786;28;20069;-56
2020/12/01 06:40:37;;;;;;;20.08;12.18;;;;;;;2.24;63.61;101236.47;5090598;28;20163;-55
2020/12/01 06:43:22;;;;;;;22.70;13.20;;;;;;;2.24;63.71;101260.25;5092996;28;20132;-54
2020/12/01 06:45:53;;;;;;;21.15;12.32;;;;;;;2.27;63.80;101247.81;5091608;28;20034;-53
2020/12/01 06:48:27;;;;;;;23.52;12.77;;;;;;;2.18;63.50;101249.81;5071992;28;20043;-52
2020/12/01 06:50:59;;;;;;;20.77;14.13;;;;;;;1.99;63.21;101192.13;5072161;28;20040;-55
2020/12/01 06:53:32;;;;;;;22.45;14.38;;;;;;;2.32;63.37;101250.34;5070544;28;20052;-55
2020/12/01 06:56:07;;;;;;;21.55;13.95;;;;;;;2.31;64.44;101247.78;5071670;28;20111;-50
2020/12/01 06:58:48;;;;;;;21.25;14.50;;;;;;;2.31;64.09;101258.34;5090692;28;20085;-51
2020/12/01 07:01:17;;;;;;;23.90;15.43;;;;;;;2.32;64.48;101255.66;5089018;28;20040;-56
2020/12/01 07:03:46;;;;;;;23.23;14.63;;;;;;;2.33;64.21;101260.03;5090357;28;20028;-51
2020/12/01 07:06:17;;;;;;;25.40;12.40;;;;;;;2.44;63.61;101265.06;5092145;28;20047;-49
2020/12/01 07:08:42;;;;;;;22.60;14.57;;;;;;;1.88;63.76;101191.47;5076065;28;20035;-52
2020/12/01 07:11:25;;;;;;;21.13;13.50;;;;;;;2.30;64.27;101257.47;5072141;28;20036;-52
2020/12/01 07:13:57;;;;;;;25.77;15.32;;;;;;;2.34;64.13;101256.47;5071651;28;20052;-54
2020/12/01 07:16:34;;;;;;;25.95;15.57;;;;;;;2.33;64.67;101253.88;5071192;28;20032;-51
2020/12/01 07:19:13;;;;;;;23.48;15.57;;;;;;;2.30;64.78;101246.88;5085008;28;20391;-53
2020/12/01 07:22:01;;;;;;;24.80;16.15;;;;;;;2.41;64.67;101260.75;5089372;28;20040;-53
2020/12/01 07:25:01;;;;;;;28.77;17.75;;;;;;;2.49;64.23;101264.97;5091603;28;20036;-52
2020/12/01 07:27:45;;;;;;;26.63;17.55;;;;;;;2.35;64.30;101266.16;5085713;28;20040;-52
2020/12/01 07:30:27;;;;;;;30.05;17.65;;;;;;;2.19;64.05;101241.84;5089375;28;20044;-50
2020/12/01 07:32:58;;;;;;;26.13;16.63;;;;;;;2.25;64.51;101275.19;5089946;28;20096;-51
2020/12/01 07:35:44;;;;;;;26.27;17.23;;;;;;;2.30;64.65;101275.97;5091268;28;20035;-52
2020/12/01 07:38:19;;;;;;;;;;;;;;;2.52;63.34;101262.25;5098230;28;20062;-50
2020/12/01 07:40:48;;;;;;;27.48;16.08;;;;;;;2.42;63.58;101254.53;5099510;28;19920;-55
2020/12/01 07:43:16;;;;;;;25.92;15.73;;;;;;;2.25;63.73;101248.78;5098760;28;20043;-52
2020/12/01 07:45:42;;;;;;;28.08;16.73;;;;;;;2.32;63.75;101263.56;5099330;28;20058;-53
2020/12/01 07:48:13;;;;;;;28.08;17.00;;;;;;;2.32;63.49;101286.50;5089317;28;20040;-54
2020/12/01 07:50:39;;;;;;;25.75;14.52;;;;;;;2.23;63.60;101277.88;5088800;28;20056;-56
2020/12/01 07:53:08;;;;;;;26.90;16.52;;;;;;;2.23;63.89;101283.16;5084754;28;20506;-54
2020/12/01 07:55:39;;;;;;;29.02;17.25;;;;;;;2.26;63.91;101290.16;5085700;28;20043;-62
2020/12/01 07:58:26;;;;;;;26.63;17.50;;;;;;;2.29;63.71;101274.22;5089863;28;20035;-59
2020/12/01 08:00:55;;;;;;;27.88;17.15;;;;;;;2.28;64.02;101290.97;5079488;28;20038;-60
2020/12/01 08:03:30;;;;;;;26.77;16.17;;;;;;;2.26;63.61;101285.72;5083414;28;20127;-62
2020/12/01 08:06:04;;;;;;;26.73;16.48;;;;;;;2.32;63.56;101268.84;5087913;28;20450;-62
2020/12/01 08:08:36;;;;;;;25.30;16.43;;;;;;;2.25;63.67;101280.50;5090062;28;20043;-66
2020/12/01 08:11:07;;;;;;;25.65;14.68;;;;;;;2.31;63.35;101285.63;5084441;28;20035;-62
2020/12/01 08:13:35;;;;;;;25.20;16.08;;;;;;;2.17;63.62;101266.56;5088749;28;20039;-64
2020/12/01 08:16:14;;;;;;;26.15;16.83;;;;;;;2.19;63.80;101276.19;5089051;28;20092;-60
2020/12/01 08:18:40;;;;;;;25.50;16.15;;;;;;;2.19;63.58;101285.91;5085371;28;20077;-58
2020/12/01 08:21:06;;;;;;;25.75;16.92;;;;;;;2.25;63.41;101286.63;5085934;28;20036;-53
2020/12/01 08:23:33;;;;;;;24.75;16.52;;;;;;;2.20;63.50;101277.94;5085908;28;20039;-60
2020/12/01 08:26:13;;;;;;;26.15;16.00;;;;;;;2.20;63.44;101270.00;5087902;28;20040;-62
2020/12/01 08:28:45;;;;;;;24.05;15.68;;;;;;;2.25;62.87;101268.13;5087477;28;20032;-56
2020/12/01 08:31:12;;;;;;;26.00;16.77;;;;;;;2.37;63.20;101266.13;5089646;28;20118;-56
2020/12/01 08:34:29;;;;;;;24.83;16.73;;;;;;;2.45;62.67;101264.16;5088633;28;20036;-61
2020/12/01 08:37:14;;;;;;;24.75;16.85;;;;;;;2.38;62.80;101260.78;5076484;28;20048;-57
2020/12/01 08:39:59;;;;;;;30.40;17.63;;;;;;;2.47;62.19;101280.00;5086907;28;20064;-62
2020/12/01 08:42:43;;;;;;;23.35;15.70;;;;;;;2.43;62.92;101272.13;5086192;28;20067;-61
2020/12/01 08:45:11;;;;;;;30.38;15.02;;;;;;;2.44;62.38;101271.22;5086140;28;20400;-58
2020/12/01 08:47:37;;;;;;;26.50;15.52;;;;;;;2.32;62.70;101276.78;5088686;28;20093;-63
2020/12/01 08:50:14;;;;;;;26.30;16.02;;;;;;;2.27;62.84;101268.97;5089329;28;20032;-58
2020/12/01 08:52:42;;;;;;;27.35;15.77;;;;;;;1.83;62.61;101181.88;5087857;28;20044;-53
2020/12/01 08:55:28;;;;;;;28.13;16.02;;;;;;;2.48;62.50;101287.03;5090310;28;20139;-58
2020/12/01 08:58:18;;;;;;;24.15;14.88;;;;;;;2.50;61.91;101277.28;5072769;28;20046;-62
2020/12/01 09:00:57;;;;;;;23.73;14.20;;;;;;;2.56;61.56;101279.78;5080477;28;20569;-64
2020/12/01 09:03:23;;;;;;;27.17;15.27;;;;;;;2.22;61.73;101225.06;5087855;28;20028;-63
2020/12/01 09:05:49;;;;;;;25.92;15.07;;;;;;;2.54;62.01;101286.88;5088290;28;20380;-62
2020/12/01 09:19:55;;;;;;;27.73;14.68;;;;;;;2.46;61.58;101299.41;5088408;28;20040;-57
2020/12/01 09:22:34;;;;;;;24.05;14.48;;;;;;;2.45;60.72;101280.03;5086399;28;20061;-61
2020/12/01 09:25:23;;;;;;;22.88;15.00;;;;;;;2.41;61.29;101287.16;5069319;28;20040;-65
2020/12/01 09:27:50;;;;;;;29.80;15.63;;;;;;;2.32;61.09;101283.88;5081613;28;20047;-62
2020/12/01 09:30:30;;;;;;;29.88;16.55;;;;;;;2.32;61.37;101297.09;5089477;28;20028;-65
2020/12/01 09:32:56;;;;;;;25.42;15.35;;;;;;;2.11;61.24;101273.72;5088264;28;20032;-64
2020/12/01 09:35:23;;;;;;;23.48;15.65;;;;;;;2.26;61.71;101303.38;5089012;28;20119;-58
2020/12/01 09:37:49;;;;;;;25.70;16.05;;;;;;;2.30;61.26;101305.03;5087677;28;20063;-62
2020/12/01 09:40:16;;;;;;;24.50;16.15;;;;;;;2.25;61.25;101294.56;5074144;28;20547;-59
2020/12/01 09:42:44;;;;;;;31.08;15.82;;;;;;;2.22;61.25;101304.34;5089199;28;20116;-51
2020/12/01 09:45:24;;;;;;;24.55;14.73;;;;;;;2.23;61.60;101300.78;5089717;28;20111;-58
2020/12/01 09:50:21;;;;;;;25.50;15.60;;;;;;;2.11;61.12;101286.06;5088670;28;20040;-61
2020/12/01 09:55:52;;;;;;;24.88;15.27;;;;;;;2.00;61.18;101275.75;5089296;28;20039;-61
2020/12/01 09:58:40;;;;;;;24.90;16.50;;;;;;;2.25;61.04;101306.91;5086106;28;20054;-63
2020/12/01 10:09:30;;;;;;;30.10;18.40;;;;;;;1.81;61.78;101276.13;5081907;28;20434;-62
2020/12/01 10:35:34;;;;;;;26.25;16.40;;;;;;;2.16;61.26;101297.41;5092153;28;20101;-63
2020/12/01 10:38:00;;;;;;;28.50;15.88;;;;;;;2.12;61.18;101290.47;5074201;28;20037;-61
2020/12/01 10:40:27;;;;;;;28.67;17.35;;;;;;;2.30;60.92;101310.31;5072904;28;20044;-63
2020/12/01 10:42:53;;;;;;;29.95;18.35;;;;;;;2.23;60.87;101316.66;5081123;28;20047;-62
2020/12/01 10:45:21;;;;;;;36.08;19.80;;;;;;;2.25;60.82;101322.78;5091742;28;20146;-61
2020/12/01 10:47:47;;;;;;;30.80;18.50;;;;;;;2.11;60.99;101279.00;5091753;28;20043;-62
2020/12/01 10:50:14;;;;;;;31.25;18.50;;;;;;;2.23;60.80;101309.56;5090620;28;20036;-60
2020/12/01 10:52:40;;;;;;;32.40;17.95;;;;;;;2.23;61.13;101309.56;5088879;28;20432;-57
2020/12/01 10:55:06;;;;;;;28.70;17.90;;;;;;;2.41;60.80;101329.47;5084635;28;20036;-58
2020/12/01 10:57:32;;;;;;;27.77;16.77;;;;;;;2.38;60.26;101328.66;5086079;28;20043;-56
2020/12/01 10:59:57;;;;;;;25.25;15.50;;;;;;;2.39;60.44;101330.41;5091679;28;20028;-56
2020/12/01 11:02:23;;;;;;;24.48;15.05;;;;;;;2.30;60.13;101334.09;5090044;28;20032;-58
2020/12/01 11:04:48;;;;;;;27.40;16.00;;;;;;;2.24;59.57;101327.16;5071066;28;20124;-65
2020/12/01 11:07:14;;;;;;;26.73;15.30;;;;;;;2.14;60.46;101320.34;5072963;28;20036;-59
2020/12/01 11:09:39;;;;;;;23.83;14.88;;;;;;;2.10;60.22;101322.19;5071177;28;20377;-51
2020/12/01 11:12:05;;;;;;;27.08;16.80;;;;;;;1.61;60.40;101243.97;5081384;28;20876;-55
2020/12/01 11:14:30;;;;;;;29.77;17.67;;;;;;;1.89;60.37;101293.56;5091325;28;20059;-58
2020/12/01 11:16:56;;;;;;;28.42;16.98;;;;;;;1.85;60.56;101291.00;5091012;28;20071;-62
2020/12/01 11:19:21;;;;;;;31.13;18.08;;;;;;;2.09;60.56;101322.22;5066662;28;20024;-64
2020/12/01 11:21:47;;;;;;;27.67;16.80;;;;;;;2.10;60.23;101339.81;5091516;28;20043;-57
2020/12/01 11:24:12;;;;;;;23.20;16.00;;;;;;;1.78;60.29;101277.94;5083793;28;20039;-65
2020/12/01 11:26:38;;;;;;;27.77;17.13;;;;;;;1.73;60.48;101270.13;5076938;28;20488;-66
2020/12/01 11:29:04;;;;;;;28.27;17.60;;;;;;;2.05;60.99;101325.81;5094639;28;20404;-61
2020/12/01 11:31:32;;;;;;;32.38;19.08;;;;;;;2.15;60.25;101330.88;5087259;28;20486;-62
2020/12/01 11:34:06;;;;;;;31.67;18.30;;;;;;;2.07;60.37;101332.81;5085066;28;20024;-69
2020/12/01 11:36:40;;;;;;;38.40;20.98;;;;;;;2.10;60.41;101331.91;5094595;28;20048;-64
2020/12/01 11:39:08;;;;;;;36.95;21.13;;;;;;;2.06;60.59;101323.16;5090647;28;20090;-66
2020/12/01 11:41:34;;;;;;;36.17;21.02;;;;;;;2.06;60.02;101314.38;5091101;28;20527;-66
2020/12/01 11:44:00;;;;;;;35.88;21.80;;;;;;;1.53;59.93;101246.75;5090814;28;20113;-67
2020/12/01 11:46:25;;;;;;;32.92;19.13;;;;;;;1.95;60.34;101335.72;5072123;28;20075;-65
2020/12/01 11:48:51;;;;;;;30.45;18.67;;;;;;;1.83;60.69;101332.41;5071742;28;20519;-60
2020/12/01 11:51:16;;;;;;;30.20;18.83;;;;;;;1.91;59.82;101332.28;5071414;28;20149;-65
2020/12/01 11:53:43;;;;;;;34.83;18.88;;;;;;;1.86;60.10;101331.50;5090709;28;20036;-62
2020/12/01 11:56:09;;;;;;;34.13;19.95;;;;;;;1.72;60.53;101329.13;5090448;28;20075;-64
2020/12/01 11:58:35;;;;;;;30.92;18.13;;;;;;;1.64;60.77;101329.28;5073714;28;20123;-62
2020/12/01 12:01:01;;;;;;;30.08;18.55;;;;;;;1.75;60.80;101339.63;5070847;28;20126;-63
2020/12/01 12:03:26;;;;;;;32.50;19.38;;;;;;;1.81;60.85;101341.25;5069969;28;20064;-66
2020/12/01 12:05:52;;;;;;;33.58;20.10;;;;;;;1.81;60.10;101344.78;5086606;28;20036;-59
2020/12/01 12:08:17;;;;;;;33.33;20.15;;;;;;;1.69;60.56;101340.63;5090627;28;20384;-61
2020/12/01 12:10:42;;;;;;;37.15;21.42;;;;;;;1.61;60.60;101321.41;5077197;28;20083;-60
2020/12/01 12:13:08;;;;;;;34.80;20.85;;;;;;;1.42;60.61;101283.94;5069900;28;20649;-59
2020/12/01 12:15:33;;;;;;;42.35;22.15;;;;;;;1.78;60.55;101357.16;5070950;28;20491;-62
2020/12/01 12:17:59;;;;;;;34.67;19.85;;;;;;;1.75;60.84;101347.56;5068432;28;20043;-63
2020/12/01 12:20:24;;;;;;;39.75;21.13;;;;;;;1.73;60.55;101341.44;5069743;28;20495;-62
2020/12/01 12:22:50;;;;;;;34.47;18.80;;;;;;;1.68;60.48;101359.13;5079439;28;20077;-61
2020/12/01 12:25:15;;;;;;;31.27;17.40;;;;;;;1.78;60.55;101351.88;5090395;28;20036;-61